createdAt,value
2022-10-17T00:00:08.038Z,6.80
2022-10-17T00:02:36.229Z,7.27
2022-10-17T00:05:04.479Z,6.60
2022-10-17T00:07:34.008Z,6.90
2022-10-17T00:10:02.221Z,7.07
2022-10-17T00:12:30.421Z,7.53
2022-10-17T00:14:58.607Z,6.43
2022-10-17T00:17:27.050Z,6.47
2022-10-17T00:19:55.386Z,6.87
2022-10-17T00:22:23.598Z,6.57
2022-10-17T00:24:53.540Z,7.00
2022-10-17T00:27:21.761Z,7.37
2022-10-17T00:29:50.631Z,6.87
2022-10-17T00:32:19.020Z,7.87
2022-10-17T00:34:47.597Z,7.67
2022-10-17T00:37:15.769Z,6.10
2022-10-17T00:39:43.977Z,7.30
2022-10-17T00:42:14.233Z,6.30
2022-10-17T00:45:01.206Z,6.67
2022-10-17T00:47:30.118Z,7.10
2022-10-17T00:49:58.513Z,6.20
2022-10-17T00:52:28.076Z,6.77
2022-10-17T00:55:00.414Z,6.60
2022-10-17T00:57:31.892Z,6.77
2022-10-17T01:00:01.332Z,5.93
2022-10-17T01:02:29.925Z,6.50
2022-10-17T01:04:59.429Z,5.60
2022-10-17T01:07:31.892Z,5.27
2022-10-17T01:10:03.264Z,6.30
2022-10-17T01:12:39.637Z,5.73
2022-10-17T01:15:12.851Z,5.87
2022-10-17T01:17:46.679Z,6.47
2022-10-17T01:20:32.567Z,5.47
2022-10-17T01:23:08.927Z,6.33
2022-10-17T01:25:44.540Z,6.00
2022-10-17T01:28:20.530Z,6.17
2022-10-17T01:31:01.111Z,6.73
2022-10-17T01:33:40.160Z,6.63
2022-10-17T01:36:11.392Z,6.60
2022-10-17T01:38:44.708Z,6.13
2022-10-17T01:41:16.385Z,5.80
2022-10-17T01:43:47.639Z,6.53
2022-10-17T01:46:20.949Z,6.40
2022-10-17T01:48:49.125Z,5.97
2022-10-17T01:51:19.340Z,5.60
2022-10-17T01:53:51.413Z,6.03
2022-10-17T01:56:26.690Z,6.07
2022-10-17T01:58:57.896Z,5.87
2022-10-17T02:01:28.501Z,5.97
2022-10-17T02:03:57.169Z,6.70
2022-10-17T02:06:25.394Z,5.80
2022-10-17T02:08:53.698Z,5.70
2022-10-17T02:11:23.134Z,7.27
2022-10-17T02:14:07.844Z,5.57
2022-10-17T02:16:40.571Z,5.43
2022-10-17T02:19:13.362Z,6.40
2022-10-17T02:21:44.867Z,6.73
2022-10-17T02:24:16.547Z,6.10
2022-10-17T02:26:47.694Z,6.70
2022-10-17T02:29:18.126Z,6.30
2022-10-17T02:31:48.775Z,6.00
2022-10-17T02:34:20.183Z,7.27
2022-10-17T02:36:51.821Z,6.03
2022-10-17T02:39:20.832Z,6.30
2022-10-17T02:41:49.923Z,6.80
2022-10-17T02:44:18.540Z,6.80
2022-10-17T02:46:55.842Z,6.67
2022-10-17T02:49:25.609Z,6.00
2022-10-17T02:51:55.638Z,6.80
2022-10-17T02:54:25.655Z,6.37
2022-10-17T02:56:56.587Z,5.93
2022-10-17T02:59:26.879Z,5.70
2022-10-17T03:01:56.528Z,7.33
2022-10-17T03:04:24.694Z,7.00
2022-10-17T03:06:52.876Z,6.47
2022-10-17T03:09:21.078Z,6.40
2022-10-17T03:11:49.283Z,6.80
2022-10-17T03:14:17.450Z,7.57
2022-10-17T03:16:45.642Z,6.10
2022-10-17T03:19:15.155Z,6.10
2022-10-17T03:21:43.373Z,6.60
2022-10-17T03:24:11.609Z,6.10
2022-10-17T03:26:39.848Z,6.77
2022-10-17T03:29:08.113Z,7.17
2022-10-17T03:31:36.354Z,6.80
2022-10-17T03:34:04.650Z,6.70
2022-10-17T03:36:34.217Z,6.80
2022-10-17T03:39:02.383Z,6.57
2022-10-17T03:41:30.585Z,6.77
2022-10-17T03:43:58.748Z,6.30
2022-10-17T03:46:26.955Z,5.83
2022-10-17T03:48:55.205Z,6.13
2022-10-17T03:51:23.437Z,6.53
2022-10-17T03:53:53.078Z,6.80
2022-10-17T03:56:22.701Z,6.93
2022-10-17T03:58:50.897Z,6.50
2022-10-17T04:01:19.918Z,7.77
2022-10-17T04:03:52.066Z,6.17
2022-10-17T04:06:20.738Z,6.37
2022-10-17T04:08:49.306Z,6.90
2022-10-17T04:11:20.006Z,5.90
2022-10-17T04:13:48.486Z,7.57
2022-10-17T04:16:19.953Z,6.63
2022-10-17T04:18:48.119Z,6.23
2022-10-17T04:21:16.430Z,6.30
2022-10-17T04:23:44.644Z,5.60
2022-10-17T04:26:12.944Z,6.80
2022-10-17T04:28:42.485Z,6.43
2022-10-17T04:31:13.362Z,6.00
2022-10-17T04:33:42.050Z,6.20
2022-10-17T04:36:12.328Z,6.83
2022-10-17T04:38:40.653Z,6.33
2022-10-17T04:41:09.585Z,6.90
2022-10-17T04:43:38.588Z,6.47
2022-10-17T04:46:09.110Z,7.07
2022-10-17T04:48:37.304Z,6.03
2022-10-17T04:51:06.769Z,7.10
2022-10-17T04:53:35.743Z,6.90
2022-10-17T04:56:09.010Z,7.40
2022-10-17T04:58:37.213Z,6.10
2022-10-17T05:01:10.460Z,7.13
2022-10-17T05:03:38.765Z,6.50
2022-10-17T05:06:07.746Z,6.53
2022-10-17T05:08:36.309Z,6.30
2022-10-17T05:11:05.715Z,6.17
2022-10-17T05:13:34.506Z,7.47
2022-10-17T05:16:03.201Z,5.80
2022-10-17T05:18:32.779Z,7.60
2022-10-17T05:21:00.925Z,6.30
2022-10-17T05:23:31.122Z,6.60
2022-10-17T05:25:59.320Z,6.27
2022-10-17T05:28:27.590Z,5.90
2022-10-17T05:30:55.788Z,6.43
2022-10-17T05:33:24.611Z,6.87
2022-10-17T05:35:54.144Z,7.17
2022-10-17T05:38:22.332Z,6.80
2022-10-17T05:40:50.506Z,6.67
2022-10-17T05:43:18.737Z,7.80
2022-10-17T05:45:46.940Z,6.20
2022-10-17T05:48:15.147Z,6.37
2022-10-17T05:50:43.332Z,6.00
2022-10-17T05:53:12.881Z,6.40
2022-10-17T05:55:41.139Z,6.33
2022-10-17T05:58:17.607Z,6.33
2022-10-17T06:00:52.528Z,5.33
2022-10-17T06:03:20.728Z,5.90
2022-10-17T06:05:48.961Z,5.80
2022-10-17T06:08:18.466Z,6.30
2022-10-17T06:10:49.002Z,6.57
2022-10-17T06:13:17.183Z,6.43
2022-10-17T06:15:45.710Z,5.53
2022-10-17T06:18:13.920Z,5.93
2022-10-17T06:20:45.327Z,6.47
2022-10-17T06:23:14.399Z,7.63
2022-10-17T06:25:43.919Z,6.47
2022-10-17T06:28:12.775Z,5.80
2022-10-17T06:30:40.988Z,5.30
2022-10-17T06:33:09.183Z,7.00
2022-10-17T06:35:37.374Z,6.13
2022-10-17T06:38:06.126Z,6.80
2022-10-17T06:40:34.358Z,5.97
2022-10-17T06:43:03.921Z,7.00
2022-10-17T06:45:32.099Z,6.13
2022-10-17T06:48:00.254Z,6.10
2022-10-17T06:50:28.485Z,5.50
2022-10-17T06:52:56.635Z,6.70
2022-10-17T06:55:25.953Z,4.83
2022-10-17T06:57:58.161Z,5.70
2022-10-17T07:00:28.316Z,6.40
2022-10-17T07:02:56.528Z,6.03
2022-10-17T07:05:24.748Z,7.00
2022-10-17T07:07:52.976Z,5.10
2022-10-17T07:10:21.154Z,6.27
2022-10-17T07:12:49.342Z,6.20
2022-10-17T07:15:17.542Z,6.07
2022-10-17T07:17:50.309Z,5.20
2022-10-17T07:20:18.650Z,5.87
2022-10-17T07:22:46.934Z,6.17
2022-10-17T07:25:15.198Z,5.73
2022-10-17T07:27:43.373Z,5.50
2022-10-17T07:30:12.577Z,6.07
2022-10-17T07:32:40.773Z,5.70
2022-10-17T07:35:10.786Z,5.80
2022-10-17T07:37:39.445Z,6.13
2022-10-17T07:40:08.573Z,5.13
2022-10-17T07:45:11.734Z,5.17
2022-10-17T07:47:39.884Z,5.63
2022-10-17T07:50:10.023Z,5.60
2022-10-17T07:52:38.328Z,5.37
2022-10-17T07:55:07.774Z,5.10
2022-10-17T07:57:35.991Z,5.17
2022-10-17T08:00:04.583Z,4.80
2022-10-17T08:02:33.065Z,5.83
2022-10-17T08:05:01.357Z,5.50
2022-10-17T08:07:32.006Z,5.90
2022-10-17T08:10:00.342Z,5.27
2022-10-17T08:12:34.237Z,5.20
2022-10-17T08:15:02.452Z,5.97
2022-10-17T08:17:30.678Z,6.30
2022-10-17T08:19:58.877Z,6.63
2022-10-17T08:22:27.309Z,5.70
2022-10-17T08:24:57.153Z,5.37
2022-10-17T08:27:27.569Z,5.13
2022-10-17T08:29:55.758Z,5.83
2022-10-17T08:32:25.822Z,5.77
2022-10-17T08:34:54.170Z,5.50
2022-10-17T08:37:22.599Z,5.33
2022-10-17T08:39:51.017Z,5.30
2022-10-17T08:42:28.809Z,5.43
2022-10-17T08:44:59.987Z,5.20
2022-10-17T08:47:30.931Z,5.10
2022-10-17T08:50:00.716Z,5.33
2022-10-17T08:52:34.248Z,5.00
2022-10-17T08:55:02.484Z,4.70
2022-10-17T08:57:32.697Z,4.83
2022-10-17T09:00:01.138Z,4.90
2022-10-17T09:02:38.757Z,5.77
2022-10-17T09:05:16.470Z,4.60
2022-10-17T09:07:46.778Z,5.10
2022-10-17T09:10:17.322Z,5.50
2022-10-17T09:12:51.561Z,4.90
2022-10-17T09:15:33.769Z,4.63
2022-10-17T09:18:04.025Z,5.00
2022-10-17T09:20:33.945Z,5.13
2022-10-17T09:23:04.130Z,5.37
2022-10-17T09:25:35.904Z,5.40
2022-10-17T09:28:12.051Z,5.43
2022-10-17T09:30:45.513Z,4.43
2022-10-17T09:33:28.118Z,4.40
2022-10-17T09:36:04.252Z,4.73
2022-10-17T09:38:36.536Z,4.53
2022-10-17T09:41:15.775Z,5.60
2022-10-17T09:43:56.509Z,4.17
2022-10-17T09:46:27.071Z,5.07
2022-10-17T09:51:33.975Z,5.03
2022-10-17T09:54:04.997Z,4.67
2022-10-17T09:56:33.185Z,4.70
2022-10-17T09:59:02.825Z,4.97
2022-10-17T10:01:32.159Z,4.83
2022-10-17T10:04:10.852Z,5.83
2022-10-17T10:06:39.647Z,4.33
2022-10-17T10:09:08.818Z,5.00
2022-10-17T10:11:47.650Z,4.10
2022-10-17T10:14:23.241Z,4.37
2022-10-17T10:16:53.631Z,4.33
2022-10-17T10:19:23.400Z,4.60
2022-10-17T10:21:56.497Z,4.17
2022-10-17T10:24:30.325Z,4.17
2022-10-17T10:27:00.124Z,3.97
2022-10-17T10:29:32.255Z,4.73
2022-10-17T10:34:55.698Z,4.30
2022-10-17T10:37:25.143Z,5.33
2022-10-17T10:39:56.154Z,4.50
2022-10-17T10:42:28.994Z,4.80
2022-10-17T10:45:00.497Z,4.10
2022-10-17T10:47:29.444Z,5.77
2022-10-17T10:50:09.725Z,4.33
2022-10-17T10:52:42.435Z,4.37
2022-10-17T10:55:17.741Z,5.00
2022-10-17T10:57:46.843Z,5.20
2022-10-17T11:00:18.614Z,5.10
2022-10-17T11:02:52.803Z,4.60
2022-10-17T11:05:23.546Z,5.00
2022-10-17T11:07:55.978Z,5.53
2022-10-17T11:10:27.058Z,4.63
2022-10-17T11:12:58.110Z,4.57
2022-10-17T11:15:29.657Z,4.73
2022-10-17T11:17:59.526Z,4.10
2022-10-17T11:20:31.353Z,5.27
2022-10-17T11:23:03.521Z,4.63
2022-10-17T11:25:33.989Z,3.90
2022-10-17T11:28:05.207Z,4.10
2022-10-17T11:30:41.458Z,4.73
2022-10-17T11:33:11.461Z,4.37
2022-10-17T11:35:41.261Z,5.30
2022-10-17T11:38:15.884Z,4.60
2022-10-17T11:40:45.603Z,3.90
2022-10-17T11:43:15.336Z,3.83
2022-10-17T11:45:47.564Z,3.83
2022-10-17T11:48:19.236Z,4.50
2022-10-17T11:53:44.978Z,3.90
2022-10-17T11:56:14.461Z,4.57
2022-10-17T11:58:45.415Z,4.80
2022-10-17T12:01:23.629Z,4.00
2022-10-17T12:04:02.925Z,3.30
2022-10-17T12:06:39.182Z,3.80
2022-10-17T12:09:11.418Z,3.80
2022-10-17T12:11:43.925Z,3.50
2022-10-17T12:14:26.986Z,3.27
2022-10-17T12:16:56.525Z,5.33
2022-10-17T12:19:32.642Z,3.43
2022-10-17T12:22:02.449Z,3.40
2022-10-17T12:24:38.457Z,3.17
2022-10-17T12:27:32.336Z,3.07
2022-10-17T12:30:01.654Z,4.00
2022-10-17T12:32:46.904Z,3.30
2022-10-17T12:35:22.468Z,2.97
2022-10-17T12:38:04.134Z,3.17
2022-10-17T12:40:59.198Z,3.53
2022-10-17T12:43:45.007Z,3.13
2022-10-17T12:46:13.978Z,3.73
2022-10-17T12:49:02.861Z,3.23
2022-10-17T12:51:35.598Z,2.80
2022-10-17T12:54:10.590Z,3.57
2022-10-17T12:56:40.230Z,2.83
2022-10-17T12:59:10.940Z,3.27
2022-10-17T13:01:40.198Z,3.90
2022-10-17T13:04:12.545Z,3.87
2022-10-17T13:06:42.169Z,3.30
2022-10-17T13:09:11.176Z,2.95
2022-10-17T13:11:41.183Z,4.10
2022-10-17T13:14:12.841Z,3.13
2022-10-17T13:16:43.039Z,2.60
2022-10-17T13:19:16.312Z,3.00
2022-10-17T13:21:51.266Z,2.80
2022-10-17T13:24:22.997Z,3.13
2022-10-17T13:26:51.193Z,3.90
2022-10-17T13:29:21.789Z,3.40
2022-10-17T13:31:54.307Z,3.83
2022-10-17T13:34:26.687Z,3.30
2022-10-17T13:36:55.579Z,3.30
2022-10-17T13:39:38.443Z,3.03
2022-10-17T13:42:19.454Z,3.80
2022-10-17T13:44:47.720Z,3.00
2022-10-17T13:47:22.653Z,3.30
2022-10-17T13:49:55.158Z,4.33
2022-10-17T13:52:25.269Z,3.43
2022-10-17T13:54:54.980Z,3.63
2022-10-17T13:57:24.997Z,3.63
2022-10-17T13:59:56.083Z,4.43
2022-10-17T14:02:26.245Z,3.60
2022-10-17T14:05:22.923Z,3.37
2022-10-17T14:10:42.083Z,3.40
2022-10-17T14:13:19.386Z,3.30
2022-10-17T14:15:47.915Z,4.17
2022-10-17T14:18:19.308Z,3.10
2022-10-17T14:21:29.191Z,3.70
2022-10-17T14:23:39.097Z,3.33
2022-10-17T14:26:11.709Z,3.40
2022-10-17T14:28:40.706Z,3.60
2022-10-17T14:31:20.571Z,4.10
2022-10-17T14:33:50.869Z,4.30
2022-10-17T14:36:21.159Z,4.00
2022-10-17T14:38:50.861Z,4.03
2022-10-17T14:41:41.771Z,4.00
2022-10-17T14:44:17.988Z,4.17
2022-10-17T14:46:50.459Z,4.00
2022-10-17T14:49:24.353Z,3.83
2022-10-17T14:52:17.537Z,3.70
2022-10-17T14:54:47.275Z,6.23
2022-10-17T14:57:17.114Z,3.70
2022-10-17T14:59:54.163Z,4.00
2022-10-17T15:02:23.667Z,3.93
2022-10-17T15:04:51.905Z,4.90
2022-10-17T15:07:22.159Z,4.17
2022-10-17T15:09:51.784Z,4.70
2022-10-17T15:12:20.834Z,4.67
2022-10-17T15:14:50.655Z,4.40
2022-10-17T15:17:20.853Z,4.30
2022-10-17T15:19:50.463Z,4.53
2022-10-17T15:22:19.132Z,4.50
2022-10-17T15:24:48.870Z,4.00
2022-10-17T15:27:18.043Z,4.33
2022-10-17T15:29:47.728Z,4.47
2022-10-17T15:32:16.223Z,4.60
2022-10-17T15:34:44.571Z,5.23
2022-10-17T15:37:18.485Z,4.30
2022-10-17T15:39:47.991Z,3.93
2022-10-17T15:42:17.489Z,4.60
2022-10-17T15:44:49.509Z,5.50
2022-10-17T15:47:22.356Z,4.07
2022-10-17T15:49:50.532Z,4.67
2022-10-17T15:52:21.492Z,4.77
2022-10-17T15:54:49.685Z,4.50
2022-10-17T15:57:20.390Z,4.13
2022-10-17T15:59:49.793Z,3.50
2022-10-17T16:02:25.910Z,4.60
2022-10-17T16:04:54.110Z,4.10
2022-10-17T16:07:22.579Z,4.07
2022-10-17T16:09:50.814Z,4.77
2022-10-17T16:14:57.266Z,4.13
2022-10-17T16:17:25.649Z,4.17
2022-10-17T16:19:53.798Z,3.67
2022-10-17T16:22:23.098Z,3.30
2022-10-17T16:24:58.307Z,3.20
2022-10-17T16:27:28.047Z,2.63
2022-10-17T16:29:56.214Z,2.20
2022-10-17T16:32:25.663Z,2.90
2022-10-17T16:34:53.849Z,2.43
2022-10-17T16:37:22.033Z,3.20
2022-10-17T16:39:52.354Z,3.27
2022-10-17T16:42:20.783Z,2.90
2022-10-17T16:44:50.732Z,2.77
2022-10-17T16:47:19.047Z,3.10
2022-10-17T16:49:47.493Z,3.57
2022-10-17T16:52:16.088Z,2.83
2022-10-17T16:54:44.300Z,3.10
2022-10-17T16:57:12.592Z,3.30
2022-10-17T16:59:41.107Z,3.17
2022-10-17T17:02:12.050Z,3.50
2022-10-17T17:04:40.602Z,3.40
2022-10-17T17:07:08.840Z,2.90
2022-10-17T17:09:37.086Z,3.53
2022-10-17T17:12:05.354Z,3.30
2022-10-17T17:14:33.554Z,3.87
2022-10-17T17:17:01.936Z,3.50
2022-10-17T17:19:31.673Z,3.40
2022-10-17T17:21:59.974Z,3.90
2022-10-17T17:24:29.301Z,4.37
2022-10-17T17:26:58.252Z,4.43
2022-10-17T17:29:28.135Z,3.83
2022-10-17T17:31:56.294Z,4.83
2022-10-17T17:34:24.538Z,3.67
2022-10-17T17:36:54.107Z,4.10
2022-10-17T17:39:22.273Z,3.60
2022-10-17T17:41:50.527Z,5.13
2022-10-17T17:44:18.681Z,4.20
2022-10-17T17:46:47.910Z,3.53
2022-10-17T17:49:16.077Z,3.60
2022-10-17T17:51:46.492Z,2.97
2022-10-17T17:54:16.252Z,4.17
2022-10-17T17:56:46.717Z,4.30
2022-10-17T17:59:15.176Z,4.67
2022-10-17T18:01:43.552Z,4.03
2022-10-17T18:04:13.279Z,3.20
2022-10-17T18:06:41.905Z,3.57
2022-10-17T18:09:10.596Z,3.80
2022-10-17T18:11:40.261Z,3.77
2022-10-17T18:14:09.730Z,3.77
2022-10-17T18:16:38.590Z,3.93
2022-10-17T18:19:08.839Z,3.17
2022-10-17T18:21:38.691Z,3.60
2022-10-17T18:24:07.389Z,3.93
2022-10-17T18:26:35.697Z,4.27
2022-10-17T18:29:05.789Z,4.30
2022-10-17T18:31:35.788Z,4.47
2022-10-17T18:34:05.086Z,6.23
2022-10-17T18:36:34.269Z,6.33
2022-10-17T18:39:03.289Z,5.90
2022-10-17T18:41:31.758Z,5.50
2022-10-17T18:43:59.997Z,5.53
2022-10-17T18:46:30.330Z,5.77
2022-10-17T18:48:58.673Z,5.70
2022-10-17T18:51:27.341Z,6.37
2022-10-17T18:53:56.369Z,6.40
2022-10-17T18:56:24.826Z,5.33
2022-10-17T18:58:53.366Z,5.60
2022-10-17T19:01:22.310Z,6.27
2022-10-17T19:03:52.641Z,5.70
2022-10-17T19:06:21.401Z,5.43
2022-10-17T19:08:49.860Z,6.33
2022-10-17T19:11:19.973Z,5.13
2022-10-17T19:13:48.713Z,5.63
2022-10-17T19:16:18.119Z,5.10
2022-10-17T19:18:50.443Z,5.93
2022-10-17T19:21:21.914Z,5.97
2022-10-17T19:23:51.196Z,6.20
2022-10-17T19:26:19.406Z,6.00
2022-10-17T19:28:47.739Z,5.50
2022-10-17T19:31:24.092Z,4.73
2022-10-17T19:33:54.957Z,5.00
2022-10-17T19:36:28.858Z,5.60
2022-10-17T19:39:00.821Z,5.57
2022-10-17T19:41:29.408Z,5.70
2022-10-17T19:43:57.604Z,5.67
2022-10-17T19:46:26.892Z,5.20
2022-10-17T19:48:55.154Z,6.00
2022-10-17T19:51:26.216Z,5.40
2022-10-17T19:53:55.074Z,6.50
2022-10-17T19:56:24.105Z,6.40
2022-10-17T19:58:53.947Z,6.47
2022-10-17T20:01:23.473Z,6.87
2022-10-17T20:03:52.912Z,7.10
2022-10-17T20:06:21.445Z,6.50
2022-10-17T20:08:51.160Z,6.87
2022-10-17T20:11:20.301Z,5.40
2022-10-17T20:13:48.888Z,7.67
2022-10-17T20:16:18.037Z,6.60
2022-10-17T20:18:46.345Z,8.00
2022-10-17T20:21:15.681Z,7.63
2022-10-17T20:23:45.534Z,7.90
2022-10-17T20:29:05.761Z,7.10
2022-10-17T20:31:34.261Z,8.70
2022-10-17T20:34:02.449Z,9.20
2022-10-17T20:36:30.647Z,7.97
2022-10-17T20:38:59.621Z,8.37
2022-10-17T20:41:29.189Z,8.93
2022-10-17T20:44:00.436Z,7.13
2022-10-17T20:46:37.151Z,8.80
2022-10-17T20:49:06.086Z,8.10
2022-10-17T20:51:34.412Z,8.73
2022-10-17T20:54:02.969Z,7.90
2022-10-17T20:56:35.022Z,8.83
2022-10-17T20:59:04.252Z,4.60
2022-10-17T21:01:34.328Z,9.23
2022-10-17T21:04:21.332Z,10.20
2022-10-17T21:06:51.867Z,6.83
2022-10-17T21:09:20.183Z,8.73
2022-10-17T21:11:51.570Z,9.47
2022-10-17T21:14:20.090Z,9.33
2022-10-17T21:16:48.491Z,10.00
2022-10-17T21:19:17.125Z,9.50
2022-10-17T21:21:46.622Z,10.03
2022-10-17T21:24:17.301Z,10.90
2022-10-17T21:26:46.345Z,11.23
2022-10-17T21:29:15.955Z,10.70
2022-10-17T21:31:44.871Z,10.83
2022-10-17T21:34:14.145Z,8.93
2022-10-17T21:36:42.531Z,10.43
2022-10-17T21:39:12.138Z,11.97
2022-10-17T21:41:40.636Z,10.50
2022-10-17T21:44:09.730Z,9.97
2022-10-17T21:46:39.364Z,11.80
2022-10-17T21:49:07.548Z,12.60
2022-10-17T21:51:35.705Z,12.27
2022-10-17T21:54:05.727Z,11.67
2022-10-17T21:56:35.286Z,11.10
2022-10-17T21:59:03.463Z,9.20
2022-10-17T22:01:32.441Z,12.83
2022-10-17T22:04:03.969Z,11.73
2022-10-17T22:06:39.611Z,11.03
2022-10-17T22:09:09.006Z,11.83
2022-10-17T22:11:37.559Z,13.30
2022-10-17T22:14:07.312Z,12.73
2022-10-17T22:16:35.974Z,10.53
2022-10-17T22:19:06.750Z,12.30
2022-10-17T22:21:35.644Z,12.93
2022-10-17T22:24:04.353Z,10.97
2022-10-17T22:26:33.512Z,11.70
2022-10-17T22:29:02.186Z,11.07
2022-10-17T22:31:30.411Z,11.30
2022-10-17T22:33:58.829Z,12.13
2022-10-17T22:36:28.372Z,11.50
2022-10-17T22:38:56.555Z,10.23
2022-10-17T22:41:24.751Z,10.80
2022-10-17T22:43:52.948Z,11.93
2022-10-17T22:46:21.121Z,11.40
2022-10-17T22:48:49.322Z,10.30
2022-10-17T22:51:17.493Z,10.47
2022-10-17T22:53:47.052Z,9.20
2022-10-17T22:56:16.040Z,9.30
2022-10-17T22:58:44.606Z,10.70
2022-10-17T23:01:15.391Z,11.03
2022-10-17T23:03:43.898Z,8.73
2022-10-17T23:06:12.184Z,9.80
2022-10-17T23:08:40.605Z,10.27
2022-10-17T23:11:10.328Z,10.17
2022-10-17T23:13:39.694Z,10.03
2022-10-17T23:16:08.358Z,10.90
2022-10-17T23:18:36.907Z,8.93
2022-10-17T23:21:05.174Z,5.83
2022-10-17T23:23:33.365Z,5.20
2022-10-17T23:26:05.541Z,9.57
2022-10-17T23:28:35.756Z,11.50
2022-10-17T23:31:14.664Z,9.83
2022-10-17T23:33:44.705Z,10.40
2022-10-17T23:36:13.310Z,9.93
2022-10-17T23:38:41.950Z,9.47
2022-10-17T23:41:10.464Z,11.60
2022-10-17T23:43:40.069Z,11.00
2022-10-17T23:46:08.542Z,6.50
2022-10-17T23:48:38.445Z,7.60
2022-10-17T23:51:07.180Z,7.73
2022-10-17T23:53:35.362Z,8.60
2022-10-17T23:56:03.570Z,6.80
2022-10-17T23:58:31.974Z,7.93
